sensor_id;sensor_type;location;lat;lon;timestamp;temperature;humidity
13589;DHT22;6865;52.552;13.434;2022-07-06T00:01:34;17.00;88.50
13589;DHT22;6865;52.552;13.434;2022-07-06T00:04:04;17.00;89.10
13589;DHT22;6865;52.552;13.434;2022-07-06T00:06:31;17.00;89.50
13589;DHT22;6865;52.552;13.434;2022-07-06T00:08:58;16.90;89.70
13589;DHT22;6865;52.552;13.434;2022-07-06T00:11:25;16.90;89.90
13589;DHT22;6865;52.552;13.434;2022-07-06T00:13:52;16.90;90.10
13589;DHT22;6865;52.552;13.434;2022-07-06T00:16:19;16.90;90.30
13589;DHT22;6865;52.552;13.434;2022-07-06T00:18:46;16.80;90.50
13589;DHT22;6865;52.552;13.434;2022-07-06T00:21:13;16.70;90.80
13589;DHT22;6865;52.552;13.434;2022-07-06T00:23:39;16.70;91.00
13589;DHT22;6865;52.552;13.434;2022-07-06T00:26:06;16.60;91.20
13589;DHT22;6865;52.552;13.434;2022-07-06T00:28:33;16.50;91.60
13589;DHT22;6865;52.552;13.434;2022-07-06T00:30:59;16.50;92.20
13589;DHT22;6865;52.552;13.434;2022-07-06T00:33:26;16.40;92.20
13589;DHT22;6865;52.552;13.434;2022-07-06T00:35:53;16.40;92.30
13589;DHT22;6865;52.552;13.434;2022-07-06T00:38:20;16.40;92.60
13589;DHT22;6865;52.552;13.434;2022-07-06T00:40:47;16.40;92.90
13589;DHT22;6865;52.552;13.434;2022-07-06T00:43:13;16.40;92.90
13589;DHT22;6865;52.552;13.434;2022-07-06T00:45:40;16.50;93.10
13589;DHT22;6865;52.552;13.434;2022-07-06T00:48:07;16.50;93.30
13589;DHT22;6865;52.552;13.434;2022-07-06T00:50:34;16.50;93.30
13589;DHT22;6865;52.552;13.434;2022-07-06T00:53:03;16.50;93.60
13589;DHT22;6865;52.552;13.434;2022-07-06T00:55:32;16.50;93.60
13589;DHT22;6865;52.552;13.434;2022-07-06T00:58:01;16.50;93.80
13589;DHT22;6865;52.552;13.434;2022-07-06T01:00:29;16.40;94.00
13589;DHT22;6865;52.552;13.434;2022-07-06T01:02:56;16.40;94.20
13589;DHT22;6865;52.552;13.434;2022-07-06T01:05:23;16.40;94.40
13589;DHT22;6865;52.552;13.434;2022-07-06T01:07:52;14.50;94.00
13589;DHT22;6865;52.552;13.434;2022-07-06T01:10:20;16.40;94.60
13589;DHT22;6865;52.552;13.434;2022-07-06T01:12:47;16.40;94.70
13589;DHT22;6865;52.552;13.434;2022-07-06T01:15:19;16.40;95.10
13589;DHT22;6865;52.552;13.434;2022-07-06T01:17:47;16.40;95.20
13589;DHT22;6865;52.552;13.434;2022-07-06T01:22:42;16.40;95.00
13589;DHT22;6865;52.552;13.434;2022-07-06T01:25:09;16.40;95.10
13589;DHT22;6865;52.552;13.434;2022-07-06T01:27:38;16.40;95.20
13589;DHT22;6865;52.552;13.434;2022-07-06T01:30:06;16.40;95.20
13589;DHT22;6865;52.552;13.434;2022-07-06T01:32:34;16.40;95.20
13589;DHT22;6865;52.552;13.434;2022-07-06T01:35:01;16.40;95.30
13589;DHT22;6865;52.552;13.434;2022-07-06T01:37:28;16.40;95.50
13589;DHT22;6865;52.552;13.434;2022-07-06T01:39:58;16.40;95.50
13589;DHT22;6865;52.552;13.434;2022-07-06T01:42:26;16.40;95.60
13589;DHT22;6865;52.552;13.434;2022-07-06T01:44:54;16.40;95.50
13589;DHT22;6865;52.552;13.434;2022-07-06T01:47:24;16.40;95.60
13589;DHT22;6865;52.552;13.434;2022-07-06T01:49:51;16.50;95.70
13589;DHT22;6865;52.552;13.434;2022-07-06T01:52:18;16.40;95.80
13589;DHT22;6865;52.552;13.434;2022-07-06T01:54:45;16.40;95.90
13589;DHT22;6865;52.552;13.434;2022-07-06T01:57:11;16.40;95.90
13589;DHT22;6865;52.552;13.434;2022-07-06T01:59:38;16.40;96.10
13589;DHT22;6865;52.552;13.434;2022-07-06T02:02:05;16.40;96.10
13589;DHT22;6865;52.552;13.434;2022-07-06T02:04:31;16.40;96.10
13589;DHT22;6865;52.552;13.434;2022-07-06T02:06:58;16.40;96.00
13589;DHT22;6865;52.552;13.434;2022-07-06T02:09:25;16.50;96.00
13589;DHT22;6865;52.552;13.434;2022-07-06T02:11:51;16.50;96.00
13589;DHT22;6865;52.552;13.434;2022-07-06T02:14:18;16.60;95.70
13589;DHT22;6865;52.552;13.434;2022-07-06T02:16:45;16.60;95.40
13589;DHT22;6865;52.552;13.434;2022-07-06T02:19:11;16.70;95.20
13589;DHT22;6865;52.552;13.434;2022-07-06T02:21:38;16.70;95.20
13589;DHT22;6865;52.552;13.434;2022-07-06T02:24:05;16.70;95.10
13589;DHT22;6865;52.552;13.434;2022-07-06T02:26:32;16.80;95.30
13589;DHT22;6865;52.552;13.434;2022-07-06T02:28:58;16.80;95.90
13589;DHT22;6865;52.552;13.434;2022-07-06T02:31:25;16.70;96.90
13589;DHT22;6865;52.552;13.434;2022-07-06T02:33:52;16.60;98.70
13589;DHT22;6865;52.552;13.434;2022-07-06T02:36:18;16.40;99.90
13589;DHT22;6865;52.552;13.434;2022-07-06T02:38:45;16.20;99.90
13589;DHT22;6865;52.552;13.434;2022-07-06T02:41:12;15.90;99.90
13589;DHT22;6865;52.552;13.434;2022-07-06T02:43:39;15.80;99.90
13589;DHT22;6865;52.552;13.434;2022-07-06T02:46:05;15.80;99.90
13589;DHT22;6865;52.552;13.434;2022-07-06T02:48:32;15.70;99.90
13589;DHT22;6865;52.552;13.434;2022-07-06T02:50:59;15.70;99.90
13589;DHT22;6865;52.552;13.434;2022-07-06T02:53:25;15.70;99.90
13589;DHT22;6865;52.552;13.434;2022-07-06T02:55:52;15.60;99.90
13589;DHT22;6865;52.552;13.434;2022-07-06T02:58:19;15.50;99.90
13589;DHT22;6865;52.552;13.434;2022-07-06T03:00:46;15.50;99.90
13589;DHT22;6865;52.552;13.434;2022-07-06T03:03:13;15.60;99.90
13589;DHT22;6865;52.552;13.434;2022-07-06T03:05:40;15.60;99.90
13589;DHT22;6865;52.552;13.434;2022-07-06T03:08:06;15.60;99.90
13589;DHT22;6865;52.552;13.434;2022-07-06T03:10:33;15.60;99.90
13589;DHT22;6865;52.552;13.434;2022-07-06T03:13:00;15.60;99.90
13589;DHT22;6865;52.552;13.434;2022-07-06T03:15:26;15.60;99.90
13589;DHT22;6865;52.552;13.434;2022-07-06T03:17:53;15.50;99.90
13589;DHT22;6865;52.552;13.434;2022-07-06T03:20:20;15.50;99.90
13589;DHT22;6865;52.552;13.434;2022-07-06T03:22:47;15.50;99.90
13589;DHT22;6865;52.552;13.434;2022-07-06T03:25:14;15.50;99.90
13589;DHT22;6865;52.552;13.434;2022-07-06T03:27:40;15.60;99.90
13589;DHT22;6865;52.552;13.434;2022-07-06T03:30:08;15.50;99.90
13589;DHT22;6865;52.552;13.434;2022-07-06T03:32:40;15.60;99.90
13589;DHT22;6865;52.552;13.434;2022-07-06T03:35:07;15.60;99.90
13589;DHT22;6865;52.552;13.434;2022-07-06T03:37:34;15.60;99.90
13589;DHT22;6865;52.552;13.434;2022-07-06T03:40:00;15.60;99.90
13589;DHT22;6865;52.552;13.434;2022-07-06T03:42:27;15.60;99.90
13589;DHT22;6865;52.552;13.434;2022-07-06T03:44:54;15.60;99.90
13589;DHT22;6865;52.552;13.434;2022-07-06T03:47:20;15.60;99.90
13589;DHT22;6865;52.552;13.434;2022-07-06T03:49:47;15.50;99.90
13589;DHT22;6865;52.552;13.434;2022-07-06T03:52:14;15.60;99.90
13589;DHT22;6865;52.552;13.434;2022-07-06T03:54:40;15.60;99.90
13589;DHT22;6865;52.552;13.434;2022-07-06T03:57:07;15.60;99.90
13589;DHT22;6865;52.552;13.434;2022-07-06T03:59:34;15.50;99.90
13589;DHT22;6865;52.552;13.434;2022-07-06T04:02:01;15.60;99.90
13589;DHT22;6865;52.552;13.434;2022-07-06T04:04:27;15.60;99.90
13589;DHT22;6865;52.552;13.434;2022-07-06T04:06:54;15.60;99.90
13589;DHT22;6865;52.552;13.434;2022-07-06T04:09:21;15.50;99.90
13589;DHT22;6865;52.552;13.434;2022-07-06T04:11:50;15.70;99.90
13589;DHT22;6865;52.552;13.434;2022-07-06T04:14:17;15.70;99.90
13589;DHT22;6865;52.552;13.434;2022-07-06T04:17:25;15.80;99.90
13589;DHT22;6865;52.552;13.434;2022-07-06T04:20:11;15.90;99.90
13589;DHT22;6865;52.552;13.434;2022-07-06T04:22:38;15.80;99.90
13589;DHT22;6865;52.552;13.434;2022-07-06T04:25:05;15.90;99.90
13589;DHT22;6865;52.552;13.434;2022-07-06T04:27:32;16.00;99.90
13589;DHT22;6865;52.552;13.434;2022-07-06T04:29:59;16.20;99.90
13589;DHT22;6865;52.552;13.434;2022-07-06T04:32:25;16.10;99.90
13589;DHT22;6865;52.552;13.434;2022-07-06T04:34:52;16.20;99.90
13589;DHT22;6865;52.552;13.434;2022-07-06T04:37:18;16.20;99.90
13589;DHT22;6865;52.552;13.434;2022-07-06T04:39:45;16.10;99.90
13589;DHT22;6865;52.552;13.434;2022-07-06T04:42:12;16.10;99.90
13589;DHT22;6865;52.552;13.434;2022-07-06T04:44:38;16.10;99.90
13589;DHT22;6865;52.552;13.434;2022-07-06T04:47:05;16.00;99.90
13589;DHT22;6865;52.552;13.434;2022-07-06T04:49:32;16.00;99.90
13589;DHT22;6865;52.552;13.434;2022-07-06T04:51:59;16.10;99.90
13589;DHT22;6865;52.552;13.434;2022-07-06T04:54:25;16.10;99.90
13589;DHT22;6865;52.552;13.434;2022-07-06T04:56:52;16.20;99.90
13589;DHT22;6865;52.552;13.434;2022-07-06T04:59:18;16.30;99.90
13589;DHT22;6865;52.552;13.434;2022-07-06T05:01:45;16.40;99.90
13589;DHT22;6865;52.552;13.434;2022-07-06T05:04:12;16.40;99.90
13589;DHT22;6865;52.552;13.434;2022-07-06T05:06:39;16.40;99.90
13589;DHT22;6865;52.552;13.434;2022-07-06T05:09:06;16.60;99.90
13589;DHT22;6865;52.552;13.434;2022-07-06T05:11:33;16.30;99.90
13589;DHT22;6865;52.552;13.434;2022-07-06T05:13:59;16.30;99.90
13589;DHT22;6865;52.552;13.434;2022-07-06T05:16:26;16.30;99.90
13589;DHT22;6865;52.552;13.434;2022-07-06T05:18:53;16.20;99.90
13589;DHT22;6865;52.552;13.434;2022-07-06T05:21:20;16.20;99.90
13589;DHT22;6865;52.552;13.434;2022-07-06T05:23:46;16.10;99.90
13589;DHT22;6865;52.552;13.434;2022-07-06T05:26:13;16.30;99.90
13589;DHT22;6865;52.552;13.434;2022-07-06T05:28:39;16.40;99.90
13589;DHT22;6865;52.552;13.434;2022-07-06T05:31:06;16.40;99.90
13589;DHT22;6865;52.552;13.434;2022-07-06T05:33:33;16.50;99.90
13589;DHT22;6865;52.552;13.434;2022-07-06T05:35:59;16.60;99.90
13589;DHT22;6865;52.552;13.434;2022-07-06T05:38:26;16.60;99.90
13589;DHT22;6865;52.552;13.434;2022-07-06T05:40:54;16.70;99.90
13589;DHT22;6865;52.552;13.434;2022-07-06T05:43:20;16.70;99.90
13589;DHT22;6865;52.552;13.434;2022-07-06T05:45:47;16.80;99.90
13589;DHT22;6865;52.552;13.434;2022-07-06T05:48:14;16.80;99.90
13589;DHT22;6865;52.552;13.434;2022-07-06T05:50:59;16.90;99.90
13589;DHT22;6865;52.552;13.434;2022-07-06T05:53:25;17.00;99.90
13589;DHT22;6865;52.552;13.434;2022-07-06T05:55:52;17.10;99.90
13589;DHT22;6865;52.552;13.434;2022-07-06T05:58:19;17.30;99.90
13589;DHT22;6865;52.552;13.434;2022-07-06T06:00:46;17.40;99.90
13589;DHT22;6865;52.552;13.434;2022-07-06T06:03:13;17.40;99.90
13589;DHT22;6865;52.552;13.434;2022-07-06T06:05:40;17.50;99.90
13589;DHT22;6865;52.552;13.434;2022-07-06T06:08:06;17.50;99.90
13589;DHT22;6865;52.552;13.434;2022-07-06T06:10:33;17.50;99.90
13589;DHT22;6865;52.552;13.434;2022-07-06T06:13:00;17.50;99.90
13589;DHT22;6865;52.552;13.434;2022-07-06T06:15:26;17.50;99.90
13589;DHT22;6865;52.552;13.434;2022-07-06T06:17:53;17.60;99.90
13589;DHT22;6865;52.552;13.434;2022-07-06T06:20:20;17.60;99.90
13589;DHT22;6865;52.552;13.434;2022-07-06T06:22:52;17.60;99.90
13589;DHT22;6865;52.552;13.434;2022-07-06T06:25:21;17.70;99.90
13589;DHT22;6865;52.552;13.434;2022-07-06T06:27:47;17.80;99.90
13589;DHT22;6865;52.552;13.434;2022-07-06T06:30:14;18.00;99.90
13589;DHT22;6865;52.552;13.434;2022-07-06T06:32:41;18.00;99.90
13589;DHT22;6865;52.552;13.434;2022-07-06T06:35:08;18.10;99.90
13589;DHT22;6865;52.552;13.434;2022-07-06T06:37:35;18.10;99.90
13589;DHT22;6865;52.552;13.434;2022-07-06T06:40:03;18.20;99.90
13589;DHT22;6865;52.552;13.434;2022-07-06T06:42:31;18.20;99.90
13589;DHT22;6865;52.552;13.434;2022-07-06T06:44:58;18.10;99.90
13589;DHT22;6865;52.552;13.434;2022-07-06T06:47:24;18.10;99.90
13589;DHT22;6865;52.552;13.434;2022-07-06T06:49:51;18.20;99.90
13589;DHT22;6865;52.552;13.434;2022-07-06T06:52:18;18.30;99.90
13589;DHT22;6865;52.552;13.434;2022-07-06T06:55:05;18.10;99.90
13589;DHT22;6865;52.552;13.434;2022-07-06T06:57:31;18.50;99.90
13589;DHT22;6865;52.552;13.434;2022-07-06T06:59:58;18.60;99.90
13589;DHT22;6865;52.552;13.434;2022-07-06T07:02:25;18.70;99.90
13589;DHT22;6865;52.552;13.434;2022-07-06T07:04:51;18.90;99.90
13589;DHT22;6865;52.552;13.434;2022-07-06T07:07:18;18.90;99.90
13589;DHT22;6865;52.552;13.434;2022-07-06T07:09:45;18.90;99.80
13589;DHT22;6865;52.552;13.434;2022-07-06T07:12:11;19.10;99.90
13589;DHT22;6865;52.552;13.434;2022-07-06T07:14:38;18.90;99.70
13589;DHT22;6865;52.552;13.434;2022-07-06T07:17:05;19.00;98.90
13589;DHT22;6865;52.552;13.434;2022-07-06T07:19:31;19.00;98.40
13589;DHT22;6865;52.552;13.434;2022-07-06T07:21:58;19.10;98.10
13589;DHT22;6865;52.552;13.434;2022-07-06T07:24:25;19.20;97.30
13589;DHT22;6865;52.552;13.434;2022-07-06T07:26:51;19.20;96.90
13589;DHT22;6865;52.552;13.434;2022-07-06T07:29:18;19.30;94.70
13589;DHT22;6865;52.552;13.434;2022-07-06T07:31:45;19.30;94.10
13589;DHT22;6865;52.552;13.434;2022-07-06T07:34:11;19.30;93.40
13589;DHT22;6865;52.552;13.434;2022-07-06T07:36:38;19.30;93.20
13589;DHT22;6865;52.552;13.434;2022-07-06T07:39:05;19.20;93.60
13589;DHT22;6865;52.552;13.434;2022-07-06T07:41:31;18.70;93.60
13589;DHT22;6865;52.552;13.434;2022-07-06T07:43:58;19.10;93.50
13589;DHT22;6865;52.552;13.434;2022-07-06T07:46:25;19.20;93.00
13589;DHT22;6865;52.552;13.434;2022-07-06T07:48:51;19.40;93.80
13589;DHT22;6865;52.552;13.434;2022-07-06T07:51:18;19.80;93.30
13589;DHT22;6865;52.552;13.434;2022-07-06T07:53:45;20.40;92.70
13589;DHT22;6865;52.552;13.434;2022-07-06T07:56:12;20.60;91.60
13589;DHT22;6865;52.552;13.434;2022-07-06T07:58:39;20.60;91.70
13589;DHT22;6865;52.552;13.434;2022-07-06T08:01:05;20.30;91.30
13589;DHT22;6865;52.552;13.434;2022-07-06T08:03:32;19.90;91.90
13589;DHT22;6865;52.552;13.434;2022-07-06T08:05:59;19.60;92.10
13589;DHT22;6865;52.552;13.434;2022-07-06T08:08:26;19.30;92.30
13589;DHT22;6865;52.552;13.434;2022-07-06T08:10:53;19.10;93.10
13589;DHT22;6865;52.552;13.434;2022-07-06T08:13:40;18.90;93.40
13589;DHT22;6865;52.552;13.434;2022-07-06T08:16:06;19.00;93.00
13589;DHT22;6865;52.552;13.434;2022-07-06T08:18:34;19.10;92.70
13589;DHT22;6865;52.552;13.434;2022-07-06T08:21:02;19.20;92.30
13589;DHT22;6865;52.552;13.434;2022-07-06T08:23:49;19.60;92.10
13589;DHT22;6865;52.552;13.434;2022-07-06T08:26:15;19.70;91.40
13589;DHT22;6865;52.552;13.434;2022-07-06T08:29:03;19.40;91.10
13589;DHT22;6865;52.552;13.434;2022-07-06T08:31:30;19.20;91.50
13589;DHT22;6865;52.552;13.434;2022-07-06T08:34:17;19.40;90.50
13589;DHT22;6865;52.552;13.434;2022-07-06T08:36:44;19.40;88.50
13589;DHT22;6865;52.552;13.434;2022-07-06T08:39:10;19.50;90.50
13589;DHT22;6865;52.552;13.434;2022-07-06T08:41:38;19.80;89.90
13589;DHT22;6865;52.552;13.434;2022-07-06T08:44:08;19.90;88.80
13589;DHT22;6865;52.552;13.434;2022-07-06T08:46:38;19.90;88.10
13589;DHT22;6865;52.552;13.434;2022-07-06T08:49:07;19.70;89.40
13589;DHT22;6865;52.552;13.434;2022-07-06T08:51:37;19.50;88.80
13589;DHT22;6865;52.552;13.434;2022-07-06T08:54:04;19.40;89.10
13589;DHT22;6865;52.552;13.434;2022-07-06T08:56:32;19.10;89.20
13589;DHT22;6865;52.552;13.434;2022-07-06T08:59:00;19.00;87.80
13589;DHT22;6865;52.552;13.434;2022-07-06T09:01:26;19.10;88.00
13589;DHT22;6865;52.552;13.434;2022-07-06T09:03:55;19.20;88.90
13589;DHT22;6865;52.552;13.434;2022-07-06T09:06:26;19.10;86.60
13589;DHT22;6865;52.552;13.434;2022-07-06T09:08:56;19.30;85.70
13589;DHT22;6865;52.552;13.434;2022-07-06T09:11:24;19.60;84.70
13589;DHT22;6865;52.552;13.434;2022-07-06T09:13:52;19.90;83.50
13589;DHT22;6865;52.552;13.434;2022-07-06T09:16:26;20.00;81.10
13589;DHT22;6865;52.552;13.434;2022-07-06T09:19:09;20.30;81.20
13589;DHT22;6865;52.552;13.434;2022-07-06T09:21:36;20.50;80.10
13589;DHT22;6865;52.552;13.434;2022-07-06T09:24:09;20.70;78.00
13589;DHT22;6865;52.552;13.434;2022-07-06T09:26:36;20.90;76.70
13589;DHT22;6865;52.552;13.434;2022-07-06T09:29:04;21.10;77.40
13589;DHT22;6865;52.552;13.434;2022-07-06T09:31:31;21.20;75.50
13589;DHT22;6865;52.552;13.434;2022-07-06T09:34:03;21.10;74.70
13589;DHT22;6865;52.552;13.434;2022-07-06T09:36:43;21.00;75.20
13589;DHT22;6865;52.552;13.434;2022-07-06T09:39:27;20.50;76.70
13589;DHT22;6865;52.552;13.434;2022-07-06T09:41:56;20.10;74.40
13589;DHT22;6865;52.552;13.434;2022-07-06T09:44:28;19.90;75.60
13589;DHT22;6865;52.552;13.434;2022-07-06T09:46:57;19.90;76.10
13589;DHT22;6865;52.552;13.434;2022-07-06T09:49:25;19.70;75.80
13589;DHT22;6865;52.552;13.434;2022-07-06T09:51:54;19.60;77.40
13589;DHT22;6865;52.552;13.434;2022-07-06T09:54:21;19.90;77.90
13589;DHT22;6865;52.552;13.434;2022-07-06T09:56:49;20.10;77.00
13589;DHT22;6865;52.552;13.434;2022-07-06T09:59:20;20.40;76.60
13589;DHT22;6865;52.552;13.434;2022-07-06T10:01:51;20.40;76.80
13589;DHT22;6865;52.552;13.434;2022-07-06T10:04:18;20.40;77.20
13589;DHT22;6865;52.552;13.434;2022-07-06T10:06:47;20.20;77.40
13589;DHT22;6865;52.552;13.434;2022-07-06T10:09:15;20.20;76.80
13589;DHT22;6865;52.552;13.434;2022-07-06T10:11:49;20.10;77.10
13589;DHT22;6865;52.552;13.434;2022-07-06T10:14:19;19.80;78.60
13589;DHT22;6865;52.552;13.434;2022-07-06T10:16:47;19.70;79.10
13589;DHT22;6865;52.552;13.434;2022-07-06T10:19:16;19.60;81.00
13589;DHT22;6865;52.552;13.434;2022-07-06T10:21:44;19.40;82.10
13589;DHT22;6865;52.552;13.434;2022-07-06T10:24:11;19.60;82.60
13589;DHT22;6865;52.552;13.434;2022-07-06T10:26:39;19.70;83.00
13589;DHT22;6865;52.552;13.434;2022-07-06T10:29:07;19.90;82.90
13589;DHT22;6865;52.552;13.434;2022-07-06T10:31:37;20.00;82.00
13589;DHT22;6865;52.552;13.434;2022-07-06T10:34:07;20.10;82.50
13589;DHT22;6865;52.552;13.434;2022-07-06T10:36:39;20.20;80.90
13589;DHT22;6865;52.552;13.434;2022-07-06T10:39:06;20.10;80.60
13589;DHT22;6865;52.552;13.434;2022-07-06T10:41:52;20.20;81.60
13589;DHT22;6865;52.552;13.434;2022-07-06T10:44:23;20.40;81.50
13589;DHT22;6865;52.552;13.434;2022-07-06T10:46:55;20.60;81.10
13589;DHT22;6865;52.552;13.434;2022-07-06T10:49:24;20.80;77.30
13589;DHT22;6865;52.552;13.434;2022-07-06T10:52:10;20.90;76.00
13589;DHT22;6865;52.552;13.434;2022-07-06T10:54:39;20.90;76.20
13589;DHT22;6865;52.552;13.434;2022-07-06T10:57:13;20.80;76.40
13589;DHT22;6865;52.552;13.434;2022-07-06T11:00:00;20.80;76.60
13589;DHT22;6865;52.552;13.434;2022-07-06T11:02:37;21.00;76.70
13589;DHT22;6865;52.552;13.434;2022-07-06T11:05:10;21.30;76.80
13589;DHT22;6865;52.552;13.434;2022-07-06T11:07:49;21.40;77.00
13589;DHT22;6865;52.552;13.434;2022-07-06T11:10:16;21.60;75.60
13589;DHT22;6865;52.552;13.434;2022-07-06T11:12:46;21.60;75.60
13589;DHT22;6865;52.552;13.434;2022-07-06T11:15:48;21.80;74.90
13589;DHT22;6865;52.552;13.434;2022-07-06T11:18:19;21.60;73.90
13589;DHT22;6865;52.552;13.434;2022-07-06T11:23:42;21.50;74.50
13589;DHT22;6865;52.552;13.434;2022-07-06T11:26:10;21.30;74.40
13589;DHT22;6865;52.552;13.434;2022-07-06T11:28:37;21.00;74.80
13589;DHT22;6865;52.552;13.434;2022-07-06T11:31:04;20.90;76.00
13589;DHT22;6865;52.552;13.434;2022-07-06T11:33:32;20.80;77.80
13589;DHT22;6865;52.552;13.434;2022-07-06T11:36:16;20.70;77.50
13589;DHT22;6865;52.552;13.434;2022-07-06T11:38:44;20.70;76.50
13589;DHT22;6865;52.552;13.434;2022-07-06T11:41:11;20.50;76.30
13589;DHT22;6865;52.552;13.434;2022-07-06T11:43:44;20.50;76.70
13589;DHT22;6865;52.552;13.434;2022-07-06T11:46:22;20.40;77.50
13589;DHT22;6865;52.552;13.434;2022-07-06T11:48:50;20.50;77.50
13589;DHT22;6865;52.552;13.434;2022-07-06T11:51:18;20.50;77.10
13589;DHT22;6865;52.552;13.434;2022-07-06T11:53:46;20.40;76.20
13589;DHT22;6865;52.552;13.434;2022-07-06T11:56:20;20.60;74.80
13589;DHT22;6865;52.552;13.434;2022-07-06T11:58:56;20.80;73.80
13589;DHT22;6865;52.552;13.434;2022-07-06T12:01:25;20.90;74.00
13589;DHT22;6865;52.552;13.434;2022-07-06T12:03:57;20.90;73.90
13589;DHT22;6865;52.552;13.434;2022-07-06T12:06:25;21.20;75.00
13589;DHT22;6865;52.552;13.434;2022-07-06T12:08:58;21.30;75.10
13589;DHT22;6865;52.552;13.434;2022-07-06T12:11:30;21.30;74.70
13589;DHT22;6865;52.552;13.434;2022-07-06T12:14:00;21.80;74.40
13589;DHT22;6865;52.552;13.434;2022-07-06T12:16:34;21.40;73.70
13589;DHT22;6865;52.552;13.434;2022-07-06T12:19:04;21.30;74.70
13589;DHT22;6865;52.552;13.434;2022-07-06T12:21:34;21.00;75.40
13589;DHT22;6865;52.552;13.434;2022-07-06T12:24:01;20.90;75.50
13589;DHT22;6865;52.552;13.434;2022-07-06T12:26:38;21.10;75.80
13589;DHT22;6865;52.552;13.434;2022-07-06T12:29:07;21.20;75.40
13589;DHT22;6865;52.552;13.434;2022-07-06T12:31:44;21.50;74.20
13589;DHT22;6865;52.552;13.434;2022-07-06T12:34:15;21.50;74.00
13589;DHT22;6865;52.552;13.434;2022-07-06T12:36:47;21.60;72.50
13589;DHT22;6865;52.552;13.434;2022-07-06T12:39:16;21.60;72.30
13589;DHT22;6865;52.552;13.434;2022-07-06T12:41:50;21.70;71.50
13589;DHT22;6865;52.552;13.434;2022-07-06T12:44:22;21.70;71.20
13589;DHT22;6865;52.552;13.434;2022-07-06T12:46:51;21.70;72.00
13589;DHT22;6865;52.552;13.434;2022-07-06T12:49:27;21.70;73.50
13589;DHT22;6865;52.552;13.434;2022-07-06T12:51:56;21.70;72.60
13589;DHT22;6865;52.552;13.434;2022-07-06T12:54:28;21.80;72.30
13589;DHT22;6865;52.552;13.434;2022-07-06T12:59:23;21.80;71.50
13589;DHT22;6865;52.552;13.434;2022-07-06T13:01:50;21.70;72.60
13589;DHT22;6865;52.552;13.434;2022-07-06T13:04:18;22.00;70.70
13589;DHT22;6865;52.552;13.434;2022-07-06T13:06:46;22.20;71.20
13589;DHT22;6865;52.552;13.434;2022-07-06T13:09:13;22.20;70.20
13589;DHT22;6865;52.552;13.434;2022-07-06T13:11:41;22.20;70.60
13589;DHT22;6865;52.552;13.434;2022-07-06T13:14:08;22.00;71.50
13589;DHT22;6865;52.552;13.434;2022-07-06T13:16:35;21.80;71.60
13589;DHT22;6865;52.552;13.434;2022-07-06T13:19:02;21.80;71.90
13589;DHT22;6865;52.552;13.434;2022-07-06T13:21:29;21.60;72.70
13589;DHT22;6865;52.552;13.434;2022-07-06T13:23:56;21.60;72.80
13589;DHT22;6865;52.552;13.434;2022-07-06T13:26:22;21.80;71.30
13589;DHT22;6865;52.552;13.434;2022-07-06T13:28:49;22.00;71.30
13589;DHT22;6865;52.552;13.434;2022-07-06T13:31:16;21.90;70.50
13589;DHT22;6865;52.552;13.434;2022-07-06T13:33:42;22.20;69.50
13589;DHT22;6865;52.552;13.434;2022-07-06T13:36:09;22.30;69.50
13589;DHT22;6865;52.552;13.434;2022-07-06T13:38:36;22.30;69.10
13589;DHT22;6865;52.552;13.434;2022-07-06T13:41:03;22.30;68.70
13589;DHT22;6865;52.552;13.434;2022-07-06T13:43:29;22.30;65.80
13589;DHT22;6865;52.552;13.434;2022-07-06T13:46:07;22.10;66.90
13589;DHT22;6865;52.552;13.434;2022-07-06T13:48:34;22.10;66.10
13589;DHT22;6865;52.552;13.434;2022-07-06T13:51:01;22.10;66.30
13589;DHT22;6865;52.552;13.434;2022-07-06T13:53:28;22.10;67.00
13589;DHT22;6865;52.552;13.434;2022-07-06T13:55:54;22.10;67.50
13589;DHT22;6865;52.552;13.434;2022-07-06T13:58:21;22.00;66.80
13589;DHT22;6865;52.552;13.434;2022-07-06T14:00:48;22.00;65.70
13589;DHT22;6865;52.552;13.434;2022-07-06T14:03:15;22.20;66.60
13589;DHT22;6865;52.552;13.434;2022-07-06T14:05:41;22.30;65.60
13589;DHT22;6865;52.552;13.434;2022-07-06T14:08:08;22.50;65.60
13589;DHT22;6865;52.552;13.434;2022-07-06T14:10:35;22.70;65.20
13589;DHT22;6865;52.552;13.434;2022-07-06T14:13:02;22.50;65.50
13589;DHT22;6865;52.552;13.434;2022-07-06T14:15:28;22.20;64.20
13589;DHT22;6865;52.552;13.434;2022-07-06T14:17:55;22.40;62.30
13589;DHT22;6865;52.552;13.434;2022-07-06T14:20:22;22.30;63.00
13589;DHT22;6865;52.552;13.434;2022-07-06T14:22:49;22.40;62.80
13589;DHT22;6865;52.552;13.434;2022-07-06T14:25:15;22.40;62.80
13589;DHT22;6865;52.552;13.434;2022-07-06T14:27:42;22.30;63.40
13589;DHT22;6865;52.552;13.434;2022-07-06T14:30:10;22.10;64.70
13589;DHT22;6865;52.552;13.434;2022-07-06T14:32:37;22.00;65.30
13589;DHT22;6865;52.552;13.434;2022-07-06T14:35:04;21.80;67.40
13589;DHT22;6865;52.552;13.434;2022-07-06T14:37:31;21.90;66.90
13589;DHT22;6865;52.552;13.434;2022-07-06T14:39:57;21.80;66.90
13589;DHT22;6865;52.552;13.434;2022-07-06T14:42:24;21.50;67.20
13589;DHT22;6865;52.552;13.434;2022-07-06T14:44:53;21.80;68.40
13589;DHT22;6865;52.552;13.434;2022-07-06T14:47:20;21.70;68.50
13589;DHT22;6865;52.552;13.434;2022-07-06T14:49:47;21.50;69.10
13589;DHT22;6865;52.552;13.434;2022-07-06T14:52:14;21.30;69.20
13589;DHT22;6865;52.552;13.434;2022-07-06T14:54:40;21.30;68.60
13589;DHT22;6865;52.552;13.434;2022-07-06T14:57:07;21.30;69.00
13589;DHT22;6865;52.552;13.434;2022-07-06T14:59:34;21.10;70.60
13589;DHT22;6865;52.552;13.434;2022-07-06T15:02:02;20.90;70.60
13589;DHT22;6865;52.552;13.434;2022-07-06T15:04:29;20.80;71.40
13589;DHT22;6865;52.552;13.434;2022-07-06T15:06:56;20.70;71.60
13589;DHT22;6865;52.552;13.434;2022-07-06T15:09:23;20.70;71.80
13589;DHT22;6865;52.552;13.434;2022-07-06T15:11:51;20.50;72.50
13589;DHT22;6865;52.552;13.434;2022-07-06T15:14:18;20.40;73.70
13589;DHT22;6865;52.552;13.434;2022-07-06T15:16:45;20.20;74.50
13589;DHT22;6865;52.552;13.434;2022-07-06T15:19:15;20.10;74.80
13589;DHT22;6865;52.552;13.434;2022-07-06T15:21:42;20.00;75.70
13589;DHT22;6865;52.552;13.434;2022-07-06T15:24:08;19.90;76.10
13589;DHT22;6865;52.552;13.434;2022-07-06T15:26:35;19.90;76.40
13589;DHT22;6865;52.552;13.434;2022-07-06T15:29:01;19.70;76.70
13589;DHT22;6865;52.552;13.434;2022-07-06T15:31:28;19.70;76.70
13589;DHT22;6865;52.552;13.434;2022-07-06T15:33:55;19.70;76.80
13589;DHT22;6865;52.552;13.434;2022-07-06T15:36:22;19.80;76.60
13589;DHT22;6865;52.552;13.434;2022-07-06T15:38:48;19.90;75.90
13589;DHT22;6865;52.552;13.434;2022-07-06T15:41:15;19.80;75.90
13589;DHT22;6865;52.552;13.434;2022-07-06T15:43:42;19.80;76.70
13589;DHT22;6865;52.552;13.434;2022-07-06T15:46:08;19.80;76.20